sensor_id;sensor_type;location;lat;lon;timestamp;pressure;altitude;pressure_sealevel;temperature;humidity
68859;BME280;55864;49.238;8.092;2023-01-04T00:01:37;100636.53;;;6.92;79.42
68859;BME280;55864;49.238;8.092;2023-01-04T00:03:37;100633.25;;;6.88;79.39
68859;BME280;55864;49.238;8.092;2023-01-04T00:05:38;100628.28;;;6.84;79.44
68859;BME280;55864;49.238;8.092;2023-01-04T00:07:38;100630.28;;;6.94;79.57
68859;BME280;55864;49.238;8.092;2023-01-04T00:09:40;100622.25;;;6.97;79.11
68859;BME280;55864;49.238;8.092;2023-01-04T00:11:41;100628.50;;;6.95;78.19
68859;BME280;55864;49.238;8.092;2023-01-04T00:13:41;100628.34;;;6.98;78.39
68859;BME280;55864;49.238;8.092;2023-01-04T00:15:42;100632.25;;;6.91;78.77
68859;BME280;55864;49.238;8.092;2023-01-04T00:17:42;100632.75;;;6.82;78.04
68859;BME280;55864;49.238;8.092;2023-01-04T00:19:43;100640.78;;;6.93;78.98
68859;BME280;55864;49.238;8.092;2023-01-04T00:21:43;100642.16;;;7.14;79.99
68859;BME280;55864;49.238;8.092;2023-01-04T00:23:46;100642.25;;;7.12;79.72
68859;BME280;55864;49.238;8.092;2023-01-04T00:25:48;100642.44;;;7.09;80.08
68859;BME280;55864;49.238;8.092;2023-01-04T00:27:49;100635.25;;;7.13;79.41
68859;BME280;55864;49.238;8.092;2023-01-04T00:29:50;100634.47;;;6.97;78.89
68859;BME280;55864;49.238;8.092;2023-01-04T00:31:50;100640.72;;;6.94;78.30
68859;BME280;55864;49.238;8.092;2023-01-04T00:33:52;100636.97;;;6.84;78.52
68859;BME280;55864;49.238;8.092;2023-01-04T00:35:52;100633.88;;;6.78;78.32
68859;BME280;55864;49.238;8.092;2023-01-04T00:37:53;100623.09;;;6.68;78.83
68859;BME280;55864;49.238;8.092;2023-01-04T00:39:53;100617.81;;;6.70;79.22
68859;BME280;55864;49.238;8.092;2023-01-04T00:41:55;100619.94;;;6.63;78.97
68859;BME280;55864;49.238;8.092;2023-01-04T00:43:56;100612.09;;;6.63;78.45
68859;BME280;55864;49.238;8.092;2023-01-04T00:45:56;100617.91;;;6.38;79.37
68859;BME280;55864;49.238;8.092;2023-01-04T00:47:57;100613.44;;;6.40;79.37
68859;BME280;55864;49.238;8.092;2023-01-04T00:49:57;100613.41;;;6.26;79.46
68859;BME280;55864;49.238;8.092;2023-01-04T00:51:58;100606.16;;;6.16;79.59
68859;BME280;55864;49.238;8.092;2023-01-04T00:54:00;100613.16;;;6.00;80.29
68859;BME280;55864;49.238;8.092;2023-01-04T00:56:00;100605.50;;;5.97;80.12
68859;BME280;55864;49.238;8.092;2023-01-04T00:58:02;100609.81;;;5.98;79.70
68859;BME280;55864;49.238;8.092;2023-01-04T01:00:04;100606.63;;;5.75;80.26
68859;BME280;55864;49.238;8.092;2023-01-04T01:02:04;100605.47;;;5.81;80.07
68859;BME280;55864;49.238;8.092;2023-01-04T01:04:05;100601.56;;;5.90;80.20
68859;BME280;55864;49.238;8.092;2023-01-04T01:06:06;100592.03;;;5.89;80.71
68859;BME280;55864;49.238;8.092;2023-01-04T01:08:09;100592.78;;;5.75;81.64
68859;BME280;55864;49.238;8.092;2023-01-04T01:10:10;100600.13;;;6.00;81.15
68859;BME280;55864;49.238;8.092;2023-01-04T01:12:10;100601.38;;;5.77;81.51
68859;BME280;55864;49.238;8.092;2023-01-04T01:14:15;100604.44;;;5.68;82.33
68859;BME280;55864;49.238;8.092;2023-01-04T01:16:18;100600.53;;;5.77;82.03
68859;BME280;55864;49.238;8.092;2023-01-04T01:18:19;100597.00;;;5.62;82.21
68859;BME280;55864;49.238;8.092;2023-01-04T01:20:19;100598.47;;;5.66;82.70
68859;BME280;55864;49.238;8.092;2023-01-04T01:22:20;100595.88;;;5.66;82.70
68859;BME280;55864;49.238;8.092;2023-01-04T01:24:20;100599.28;;;5.84;82.71
68859;BME280;55864;49.238;8.092;2023-01-04T01:26:22;100597.25;;;5.73;83.27
68859;BME280;55864;49.238;8.092;2023-01-04T01:28:23;100609.28;;;5.91;82.81
68859;BME280;55864;49.238;8.092;2023-01-04T01:30:25;100606.69;;;5.91;83.72
68859;BME280;55864;49.238;8.092;2023-01-04T01:32:25;100598.94;;;5.90;82.83
68859;BME280;55864;49.238;8.092;2023-01-04T01:34:26;100603.75;;;5.97;82.79
68859;BME280;55864;49.238;8.092;2023-01-04T01:36:26;100607.69;;;6.04;83.16
68859;BME280;55864;49.238;8.092;2023-01-04T01:38:27;100596.34;;;6.05;83.41
68859;BME280;55864;49.238;8.092;2023-01-04T01:40:28;100598.09;;;6.20;83.04
68859;BME280;55864;49.238;8.092;2023-01-04T01:42:28;100598.91;;;6.21;82.73
68859;BME280;55864;49.238;8.092;2023-01-04T01:44:56;100602.09;;;6.26;82.36
68859;BME280;55864;49.238;8.092;2023-01-04T01:46:59;100606.28;;;6.28;82.42
68859;BME280;55864;49.238;8.092;2023-01-04T01:49:02;100598.13;;;6.34;82.45
68859;BME280;55864;49.238;8.092;2023-01-04T01:51:03;100591.25;;;6.33;81.74
68859;BME280;55864;49.238;8.092;2023-01-04T01:53:07;100589.72;;;6.29;82.22
68859;BME280;55864;49.238;8.092;2023-01-04T01:55:10;100579.28;;;6.29;81.80
68859;BME280;55864;49.238;8.092;2023-01-04T01:57:15;100577.25;;;6.34;81.96
68859;BME280;55864;49.238;8.092;2023-01-04T01:59:18;100579.75;;;6.36;81.25
68859;BME280;55864;49.238;8.092;2023-01-04T02:01:20;100581.28;;;6.40;81.21
68859;BME280;55864;49.238;8.092;2023-01-04T02:03:26;100579.84;;;6.34;81.42
68859;BME280;55864;49.238;8.092;2023-01-04T02:05:30;100579.16;;;6.46;81.00
68859;BME280;55864;49.238;8.092;2023-01-04T02:07:32;100577.66;;;6.42;80.46
68859;BME280;55864;49.238;8.092;2023-01-04T02:09:34;100576.56;;;6.46;81.11
68859;BME280;55864;49.238;8.092;2023-01-04T02:11:36;100566.97;;;6.47;80.61
68859;BME280;55864;49.238;8.092;2023-01-04T02:13:38;100563.16;;;6.52;80.53
68859;BME280;55864;49.238;8.092;2023-01-04T02:15:52;100558.97;;;6.34;81.32
68859;BME280;55864;49.238;8.092;2023-01-04T02:18:02;100545.84;;;6.36;81.14
68859;BME280;55864;49.238;8.092;2023-01-04T02:20:33;100547.03;;;6.30;81.39
68859;BME280;55864;49.238;8.092;2023-01-04T02:22:57;100544.72;;;6.26;81.64
68859;BME280;55864;49.238;8.092;2023-01-04T02:25:25;100545.25;;;6.17;81.38
68859;BME280;55864;49.238;8.092;2023-01-04T02:27:43;100546.66;;;6.22;81.07
68859;BME280;55864;49.238;8.092;2023-01-04T02:32:29;100548.53;;;6.20;81.52
68859;BME280;55864;49.238;8.092;2023-01-04T02:34:40;100551.22;;;6.19;81.48
68859;BME280;55864;49.238;8.092;2023-01-04T02:36:48;100545.50;;;6.12;81.85
68859;BME280;55864;49.238;8.092;2023-01-04T02:39:04;100555.59;;;6.18;81.83
68859;BME280;55864;49.238;8.092;2023-01-04T02:41:14;100543.00;;;6.25;81.94
68859;BME280;55864;49.238;8.092;2023-01-04T02:43:22;100539.84;;;6.20;81.66
68859;BME280;55864;49.238;8.092;2023-01-04T02:45:30;100542.34;;;6.21;81.50
68859;BME280;55864;49.238;8.092;2023-01-04T02:47:34;100536.38;;;6.19;81.50
68859;BME280;55864;49.238;8.092;2023-01-04T02:49:36;100538.19;;;6.33;81.12
68859;BME280;55864;49.238;8.092;2023-01-04T02:51:37;100524.41;;;6.31;81.06
68859;BME280;55864;49.238;8.092;2023-01-04T02:53:38;100527.13;;;6.29;81.32
68859;BME280;55864;49.238;8.092;2023-01-04T02:55:47;100515.38;;;6.36;81.33
68859;BME280;55864;49.238;8.092;2023-01-04T02:57:57;100520.78;;;6.33;81.02
68859;BME280;55864;49.238;8.092;2023-01-04T03:00:09;100519.16;;;6.17;81.92
68859;BME280;55864;49.238;8.092;2023-01-04T03:02:23;100516.72;;;6.14;81.67
68859;BME280;55864;49.238;8.092;2023-01-04T03:04:38;100512.25;;;6.16;82.35
68859;BME280;55864;49.238;8.092;2023-01-04T03:06:47;100502.66;;;6.16;81.83
68859;BME280;55864;49.238;8.092;2023-01-04T03:09:01;100504.44;;;6.16;82.44
68859;BME280;55864;49.238;8.092;2023-01-04T03:11:05;100501.25;;;6.11;81.86
68859;BME280;55864;49.238;8.092;2023-01-04T03:13:12;100500.75;;;6.04;82.72
68859;BME280;55864;49.238;8.092;2023-01-04T03:15:19;100498.16;;;6.04;82.89
68859;BME280;55864;49.238;8.092;2023-01-04T03:17:23;100500.53;;;5.93;82.70
68859;BME280;55864;49.238;8.092;2023-01-04T03:19:24;100497.66;;;5.82;83.43
68859;BME280;55864;49.238;8.092;2023-01-04T03:21:27;100494.31;;;5.80;83.22
68859;BME280;55864;49.238;8.092;2023-01-04T03:23:34;100505.84;;;5.60;83.35
68859;BME280;55864;49.238;8.092;2023-01-04T03:25:39;100494.19;;;5.52;83.63
68859;BME280;55864;49.238;8.092;2023-01-04T03:27:42;100488.28;;;5.33;84.21
68859;BME280;55864;49.238;8.092;2023-01-04T03:29:49;100486.69;;;5.30;84.08
68859;BME280;55864;49.238;8.092;2023-01-04T03:31:56;100486.94;;;5.10;84.72
68859;BME280;55864;49.238;8.092;2023-01-04T03:33:58;100471.81;;;5.01;85.31
68859;BME280;55864;49.238;8.092;2023-01-04T03:36:04;100486.59;;;5.01;85.21
68859;BME280;55864;49.238;8.092;2023-01-04T03:38:11;100475.66;;;4.94;85.88
68859;BME280;55864;49.238;8.092;2023-01-04T03:40:19;100472.59;;;4.70;86.55
68859;BME280;55864;49.238;8.092;2023-01-04T03:42:28;100467.56;;;4.83;86.27
68859;BME280;55864;49.238;8.092;2023-01-04T03:44:35;100465.63;;;4.71;85.93
68859;BME280;55864;49.238;8.092;2023-01-04T03:46:43;100470.53;;;4.60;87.58
68859;BME280;55864;49.238;8.092;2023-01-04T03:48:52;100468.97;;;4.57;87.20
68859;BME280;55864;49.238;8.092;2023-01-04T03:50:59;100469.28;;;4.51;87.93
68859;BME280;55864;49.238;8.092;2023-01-04T03:53:02;100457.88;;;4.54;87.62
68859;BME280;55864;49.238;8.092;2023-01-04T03:55:05;100457.63;;;4.58;87.31
68859;BME280;55864;49.238;8.092;2023-01-04T03:57:08;100460.03;;;4.46;87.33
68859;BME280;55864;49.238;8.092;2023-01-04T03:59:10;100457.19;;;4.50;87.23
68859;BME280;55864;49.238;8.092;2023-01-04T04:01:11;100451.69;;;4.39;87.97
68859;BME280;55864;49.238;8.092;2023-01-04T04:03:12;100448.31;;;4.37;87.71
68859;BME280;55864;49.238;8.092;2023-01-04T04:05:15;100449.44;;;4.33;87.98
68859;BME280;55864;49.238;8.092;2023-01-04T04:07:16;100446.38;;;4.25;88.41
68859;BME280;55864;49.238;8.092;2023-01-04T04:09:16;100448.19;;;4.40;86.97
68859;BME280;55864;49.238;8.092;2023-01-04T04:11:18;100444.06;;;4.36;87.26
68859;BME280;55864;49.238;8.092;2023-01-04T04:13:19;100452.16;;;4.30;87.81
68859;BME280;55864;49.238;8.092;2023-01-04T04:15:19;100448.41;;;4.36;87.67
68859;BME280;55864;49.238;8.092;2023-01-04T04:17:20;100452.63;;;4.21;88.74
68859;BME280;55864;49.238;8.092;2023-01-04T04:19:20;100448.72;;;4.30;88.31
68859;BME280;55864;49.238;8.092;2023-01-04T04:21:21;100450.16;;;4.35;87.40
68859;BME280;55864;49.238;8.092;2023-01-04T04:23:22;100455.69;;;4.29;87.83
68859;BME280;55864;49.238;8.092;2023-01-04T04:25:22;100453.31;;;4.25;88.69
68859;BME280;55864;49.238;8.092;2023-01-04T04:27:24;100437.34;;;4.15;88.90
68859;BME280;55864;49.238;8.092;2023-01-04T04:29:25;100440.63;;;4.19;89.40
68859;BME280;55864;49.238;8.092;2023-01-04T04:31:25;100443.28;;;4.34;90.18
68859;BME280;55864;49.238;8.092;2023-01-04T04:33:26;100438.09;;;4.34;89.62
68859;BME280;55864;49.238;8.092;2023-01-04T04:35:26;100438.94;;;4.35;90.27
68859;BME280;55864;49.238;8.092;2023-01-04T04:37:27;100434.25;;;4.41;90.49
68859;BME280;55864;49.238;8.092;2023-01-04T04:39:27;100429.50;;;4.49;90.66
68859;BME280;55864;49.238;8.092;2023-01-04T04:41:28;100429.16;;;4.55;90.99
68859;BME280;55864;49.238;8.092;2023-01-04T04:43:31;100436.00;;;4.58;91.42
68859;BME280;55864;49.238;8.092;2023-01-04T04:45:31;100432.97;;;4.65;90.41
68859;BME280;55864;49.238;8.092;2023-01-04T04:47:32;100418.84;;;4.69;90.72
68859;BME280;55864;49.238;8.092;2023-01-04T04:49:32;100419.72;;;4.70;90.64
68859;BME280;55864;49.238;8.092;2023-01-04T04:51:34;100416.91;;;4.90;89.80
68859;BME280;55864;49.238;8.092;2023-01-04T04:53:34;100414.19;;;4.92;89.35
68859;BME280;55864;49.238;8.092;2023-01-04T04:55:35;100416.88;;;4.74;90.31
68859;BME280;55864;49.238;8.092;2023-01-04T04:57:35;100414.63;;;4.84;89.62
68859;BME280;55864;49.238;8.092;2023-01-04T04:59:37;100411.75;;;4.89;89.44
68859;BME280;55864;49.238;8.092;2023-01-04T05:01:38;100408.16;;;4.91;89.04
68859;BME280;55864;49.238;8.092;2023-01-04T05:03:38;100410.50;;;4.96;88.68
68859;BME280;55864;49.238;8.092;2023-01-04T05:05:39;100409.06;;;5.06;88.89
68859;BME280;55864;49.238;8.092;2023-01-04T05:07:39;100408.63;;;5.13;87.51
68859;BME280;55864;49.238;8.092;2023-01-04T05:09:40;100404.69;;;5.06;87.56
68859;BME280;55864;49.238;8.092;2023-01-04T05:11:41;100406.63;;;5.03;87.59
68859;BME280;55864;49.238;8.092;2023-01-04T05:13:42;100412.84;;;5.16;87.66
68859;BME280;55864;49.238;8.092;2023-01-04T05:15:45;100404.94;;;5.17;87.73
68859;BME280;55864;49.238;8.092;2023-01-04T05:17:45;100407.47;;;5.19;88.18
68859;BME280;55864;49.238;8.092;2023-01-04T05:19:46;100406.22;;;5.26;88.17
68859;BME280;55864;49.238;8.092;2023-01-04T05:21:46;100417.19;;;5.31;87.31
68859;BME280;55864;49.238;8.092;2023-01-04T05:23:47;100414.09;;;5.24;88.08
68859;BME280;55864;49.238;8.092;2023-01-04T05:25:50;100416.03;;;5.21;88.25
68859;BME280;55864;49.238;8.092;2023-01-04T05:27:52;100411.84;;;5.18;88.96
68859;BME280;55864;49.238;8.092;2023-01-04T05:29:52;100413.00;;;5.28;88.71
68859;BME280;55864;49.238;8.092;2023-01-04T05:31:54;100407.78;;;5.28;88.19
68859;BME280;55864;49.238;8.092;2023-01-04T05:33:55;100406.03;;;5.29;87.40
68859;BME280;55864;49.238;8.092;2023-01-04T05:35:57;100403.25;;;5.32;87.07
68859;BME280;55864;49.238;8.092;2023-01-04T05:37:57;100403.41;;;5.44;86.36
68859;BME280;55864;49.238;8.092;2023-01-04T05:39:58;100403.31;;;5.46;86.31
68859;BME280;55864;49.238;8.092;2023-01-04T05:41:59;100399.44;;;5.53;86.53
68859;BME280;55864;49.238;8.092;2023-01-04T05:43:59;100392.59;;;5.66;86.15
68859;BME280;55864;49.238;8.092;2023-01-04T05:46:00;100393.53;;;5.65;85.25
68859;BME280;55864;49.238;8.092;2023-01-04T05:48:02;100391.03;;;5.78;85.66
68859;BME280;55864;49.238;8.092;2023-01-04T05:50:03;100387.41;;;5.80;84.79
68859;BME280;55864;49.238;8.092;2023-01-04T05:52:04;100382.13;;;5.82;85.05
68859;BME280;55864;49.238;8.092;2023-01-04T05:54:04;100382.22;;;5.80;84.86
68859;BME280;55864;49.238;8.092;2023-01-04T05:56:05;100378.19;;;5.90;85.11
68859;BME280;55864;49.238;8.092;2023-01-04T05:58:06;100371.56;;;5.99;84.25
68859;BME280;55864;49.238;8.092;2023-01-04T06:00:08;100369.97;;;5.96;85.04
68859;BME280;55864;49.238;8.092;2023-01-04T06:02:17;100372.41;;;5.99;84.44
68859;BME280;55864;49.238;8.092;2023-01-04T06:04:19;100382.75;;;6.01;84.67
68859;BME280;55864;49.238;8.092;2023-01-04T06:06:19;100381.72;;;6.03;84.86
68859;BME280;55864;49.238;8.092;2023-01-04T06:08:20;100377.88;;;5.95;85.12
68859;BME280;55864;49.238;8.092;2023-01-04T06:10:20;100377.28;;;6.05;85.03
68859;BME280;55864;49.238;8.092;2023-01-04T06:12:21;100366.84;;;6.05;85.13
68859;BME280;55864;49.238;8.092;2023-01-04T06:14:22;100363.59;;;6.02;85.47
68859;BME280;55864;49.238;8.092;2023-01-04T06:16:22;100357.41;;;6.03;85.60
68859;BME280;55864;49.238;8.092;2023-01-04T06:18:23;100356.97;;;6.10;85.12
68859;BME280;55864;49.238;8.092;2023-01-04T06:20:25;100364.13;;;6.07;85.26
68859;BME280;55864;49.238;8.092;2023-01-04T06:22:27;100367.13;;;6.15;85.01
68859;BME280;55864;49.238;8.092;2023-01-04T06:24:27;100367.97;;;6.29;84.76
68859;BME280;55864;49.238;8.092;2023-01-04T06:26:28;100364.59;;;6.27;84.82
68859;BME280;55864;49.238;8.092;2023-01-04T06:28:28;100359.19;;;6.30;85.20
68859;BME280;55864;49.238;8.092;2023-01-04T06:30:29;100360.69;;;6.34;85.43
68859;BME280;55864;49.238;8.092;2023-01-04T06:32:30;100368.41;;;6.36;85.32
68859;BME280;55864;49.238;8.092;2023-01-04T06:34:30;100359.47;;;6.40;85.83
68859;BME280;55864;49.238;8.092;2023-01-04T06:36:32;100366.75;;;6.35;86.36
68859;BME280;55864;49.238;8.092;2023-01-04T06:38:33;100368.34;;;6.37;86.25
68859;BME280;55864;49.238;8.092;2023-01-04T06:40:33;100357.91;;;6.37;87.05
68859;BME280;55864;49.238;8.092;2023-01-04T06:42:34;100363.19;;;6.50;86.83
68859;BME280;55864;49.238;8.092;2023-01-04T06:44:34;100368.41;;;6.36;88.00
68859;BME280;55864;49.238;8.092;2023-01-04T06:46:35;100370.94;;;6.37;88.83
68859;BME280;55864;49.238;8.092;2023-01-04T06:48:36;100368.53;;;6.48;88.69
68859;BME280;55864;49.238;8.092;2023-01-04T06:50:36;100367.22;;;6.41;89.67
68859;BME280;55864;49.238;8.092;2023-01-04T06:52:38;100374.50;;;6.50;89.28
68859;BME280;55864;49.238;8.092;2023-01-04T06:54:39;100364.31;;;6.46;90.03
68859;BME280;55864;49.238;8.092;2023-01-04T06:56:39;100371.19;;;6.61;89.60
68859;BME280;55864;49.238;8.092;2023-01-04T06:58:40;100363.00;;;6.53;89.86
68859;BME280;55864;49.238;8.092;2023-01-04T07:00:40;100363.19;;;6.50;89.40
68859;BME280;55864;49.238;8.092;2023-01-04T07:02:41;100351.28;;;6.46;90.32
68859;BME280;55864;49.238;8.092;2023-01-04T07:04:42;100350.53;;;6.44;90.45
68859;BME280;55864;49.238;8.092;2023-01-04T07:06:42;100351.84;;;6.51;90.50
68859;BME280;55864;49.238;8.092;2023-01-04T07:08:44;100352.88;;;6.48;90.85
68859;BME280;55864;49.238;8.092;2023-01-04T07:10:45;100351.91;;;6.63;90.15
68859;BME280;55864;49.238;8.092;2023-01-04T07:12:46;100350.25;;;6.48;90.38
68859;BME280;55864;49.238;8.092;2023-01-04T07:14:46;100348.94;;;6.55;90.67
68859;BME280;55864;49.238;8.092;2023-01-04T07:16:47;100343.25;;;6.63;89.79
68859;BME280;55864;49.238;8.092;2023-01-04T07:18:47;100345.41;;;6.56;90.57
68859;BME280;55864;49.238;8.092;2023-01-04T07:20:48;100329.81;;;6.69;89.65
68859;BME280;55864;49.238;8.092;2023-01-04T07:22:48;100336.72;;;6.56;91.20
68859;BME280;55864;49.238;8.092;2023-01-04T07:24:50;100335.59;;;6.60;90.71
68859;BME280;55864;49.238;8.092;2023-01-04T07:26:51;100334.19;;;6.68;90.42
68859;BME280;55864;49.238;8.092;2023-01-04T07:28:51;100337.44;;;6.72;90.11
68859;BME280;55864;49.238;8.092;2023-01-04T07:30:52;100331.69;;;6.67;90.60
68859;BME280;55864;49.238;8.092;2023-01-04T07:32:53;100339.59;;;6.65;91.10
68859;BME280;55864;49.238;8.092;2023-01-04T07:34:54;100345.56;;;6.68;91.10
68859;BME280;55864;49.238;8.092;2023-01-04T07:36:55;100349.00;;;6.68;90.87
68859;BME280;55864;49.238;8.092;2023-01-04T07:38:58;100343.50;;;6.73;90.71
68859;BME280;55864;49.238;8.092;2023-01-04T07:41:00;100335.50;;;6.76;90.50
68859;BME280;55864;49.238;8.092;2023-01-04T07:43:01;100334.53;;;6.77;90.39
68859;BME280;55864;49.238;8.092;2023-01-04T07:45:02;100325.31;;;6.71;90.52
68859;BME280;55864;49.238;8.092;2023-01-04T07:47:03;100319.09;;;6.74;90.35
68859;BME280;55864;49.238;8.092;2023-01-04T07:49:04;100309.97;;;6.93;89.92
68859;BME280;55864;49.238;8.092;2023-01-04T07:51:04;100312.72;;;6.78;90.42
68859;BME280;55864;49.238;8.092;2023-01-04T07:53:05;100316.00;;;6.81;90.30
68859;BME280;55864;49.238;8.092;2023-01-04T07:55:15;100323.50;;;6.86;90.28
68859;BME280;55864;49.238;8.092;2023-01-04T07:57:17;100311.69;;;6.80;90.61
68859;BME280;55864;49.238;8.092;2023-01-04T07:59:18;100319.03;;;6.88;90.43
68859;BME280;55864;49.238;8.092;2023-01-04T08:01:19;100321.28;;;6.80;90.25
68859;BME280;55864;49.238;8.092;2023-01-04T08:03:20;100322.44;;;6.76;90.56
68859;BME280;55864;49.238;8.092;2023-01-04T08:05:21;100330.81;;;6.66;90.77
68859;BME280;55864;49.238;8.092;2023-01-04T08:07:21;100337.91;;;6.64;90.54
68859;BME280;55864;49.238;8.092;2023-01-04T08:09:22;100315.00;;;6.55;90.24
68859;BME280;55864;49.238;8.092;2023-01-04T08:11:22;100316.84;;;6.68;90.93
68859;BME280;55864;49.238;8.092;2023-01-04T08:13:24;100330.22;;;6.49;91.66
68859;BME280;55864;49.238;8.092;2023-01-04T08:15:25;100329.66;;;6.58;91.38
68859;BME280;55864;49.238;8.092;2023-01-04T08:17:25;100328.69;;;6.59;91.32
68859;BME280;55864;49.238;8.092;2023-01-04T08:19:26;100327.19;;;6.69;91.11
68859;BME280;55864;49.238;8.092;2023-01-04T08:21:28;100331.13;;;6.62;90.99
68859;BME280;55864;49.238;8.092;2023-01-04T08:23:29;100319.25;;;6.71;90.98
68859;BME280;55864;49.238;8.092;2023-01-04T08:25:30;100319.38;;;6.69;91.57
68859;BME280;55864;49.238;8.092;2023-01-04T08:27:31;100323.00;;;6.66;91.22
68859;BME280;55864;49.238;8.092;2023-01-04T08:29:33;100319.41;;;6.82;90.50
68859;BME280;55864;49.238;8.092;2023-01-04T08:31:34;100320.16;;;6.84;90.78
68859;BME280;55864;49.238;8.092;2023-01-04T08:33:35;100312.44;;;6.82;90.67
68859;BME280;55864;49.238;8.092;2023-01-04T08:35:36;100305.06;;;6.89;90.33
68859;BME280;55864;49.238;8.092;2023-01-04T08:37:36;100305.22;;;6.86;89.68
68859;BME280;55864;49.238;8.092;2023-01-04T08:39:37;100299.97;;;7.00;89.84
68859;BME280;55864;49.238;8.092;2023-01-04T08:41:38;100294.19;;;6.95;89.93
68859;BME280;55864;49.238;8.092;2023-01-04T08:43:38;100295.50;;;7.02;89.99
68859;BME280;55864;49.238;8.092;2023-01-04T08:45:41;100293.50;;;7.05;89.37
68859;BME280;55864;49.238;8.092;2023-01-04T08:47:41;100281.53;;;7.15;89.23
68859;BME280;55864;49.238;8.092;2023-01-04T08:49:42;100284.44;;;7.11;89.11
68859;BME280;55864;49.238;8.092;2023-01-04T08:51:42;100287.03;;;6.98;90.27
68859;BME280;55864;49.238;8.092;2023-01-04T08:53:43;100283.16;;;7.04;89.72
68859;BME280;55864;49.238;8.092;2023-01-04T08:55:48;100282.56;;;7.13;89.48
68859;BME280;55864;49.238;8.092;2023-01-04T08:57:48;100273.38;;;7.20;89.46
68859;BME280;55864;49.238;8.092;2023-01-04T08:59:49;100275.66;;;7.12;89.40
68859;BME280;55864;49.238;8.092;2023-01-04T09:01:51;100281.22;;;7.20;88.80
68859;BME280;55864;49.238;8.092;2023-01-04T09:03:51;100276.94;;;7.19;88.48
68859;BME280;55864;49.238;8.092;2023-01-04T09:05:52;100266.03;;;7.12;88.81
68859;BME280;55864;49.238;8.092;2023-01-04T09:07:52;100279.00;;;7.14;88.97
68859;BME280;55864;49.238;8.092;2023-01-04T09:09:53;100275.25;;;7.18;89.12
68859;BME280;55864;49.238;8.092;2023-01-04T09:11:53;100280.47;;;7.18;88.80
68859;BME280;55864;49.238;8.092;2023-01-04T09:13:55;100273.38;;;7.20;88.66
68859;BME280;55864;49.238;8.092;2023-01-04T09:15:59;100271.78;;;7.17;89.18
68859;BME280;55864;49.238;8.092;2023-01-04T09:18:00;100275.34;;;7.16;89.47
68859;BME280;55864;49.238;8.092;2023-01-04T09:20:01;100266.88;;;7.13;89.75
68859;BME280;55864;49.238;8.092;2023-01-04T09:22:02;100284.97;;;7.16;89.27
68859;BME280;55864;49.238;8.092;2023-01-04T09:24:02;100280.94;;;7.24;89.76
68859;BME280;55864;49.238;8.092;2023-01-04T09:26:04;100267.91;;;7.10;89.56
68859;BME280;55864;49.238;8.092;2023-01-04T09:28:05;100252.97;;;7.12;89.73
68859;BME280;55864;49.238;8.092;2023-01-04T09:30:07;100259.56;;;7.18;89.50
68859;BME280;55864;49.238;8.092;2023-01-04T09:32:07;100274.13;;;7.22;89.53
68859;BME280;55864;49.238;8.092;2023-01-04T09:34:10;100271.47;;;7.09;90.27
68859;BME280;55864;49.238;8.092;2023-01-04T09:36:44;100263.44;;;7.25;89.07
68859;BME280;55864;49.238;8.092;2023-01-04T09:38:55;100258.66;;;7.19;88.91
68859;BME280;55864;49.238;8.092;2023-01-04T09:41:00;100258.72;;;7.17;89.51
68859;BME280;55864;49.238;8.092;2023-01-04T09:43:02;100260.41;;;7.18;89.49
68859;BME280;55864;49.238;8.092;2023-01-04T09:45:10;100262.41;;;7.15;89.74
68859;BME280;55864;49.238;8.092;2023-01-04T09:47:19;100255.63;;;7.25;90.04
68859;BME280;55864;49.238;8.092;2023-01-04T09:49:28;100240.16;;;7.22;89.19
68859;BME280;55864;49.238;8.092;2023-01-04T09:51:33;100250.59;;;7.22;89.90
68859;BME280;55864;49.238;8.092;2023-01-04T09:53:39;100236.00;;;7.32;89.89
68859;BME280;55864;49.238;8.092;2023-01-04T09:55:44;100240.47;;;7.30;90.33
68859;BME280;55864;49.238;8.092;2023-01-04T09:57:50;100234.31;;;7.31;90.19
68859;BME280;55864;49.238;8.092;2023-01-04T09:59:55;100217.28;;;7.38;89.75
68859;BME280;55864;49.238;8.092;2023-01-04T10:02:01;100228.25;;;7.43;89.61
68859;BME280;55864;49.238;8.092;2023-01-04T10:04:06;100217.69;;;7.44;90.16
68859;BME280;55864;49.238;8.092;2023-01-04T10:06:13;100229.31;;;7.53;89.53
68859;BME280;55864;49.238;8.092;2023-01-04T10:08:16;100226.16;;;7.48;90.41
68859;BME280;55864;49.238;8.092;2023-01-04T10:10:21;100227.22;;;7.45;90.69
68859;BME280;55864;49.238;8.092;2023-01-04T10:12:37;100232.25;;;7.48;90.27
68859;BME280;55864;49.238;8.092;2023-01-04T10:14:54;100225.94;;;7.38;90.79
68859;BME280;55864;49.238;8.092;2023-01-04T10:17:10;100224.06;;;7.40;91.72
68859;BME280;55864;49.238;8.092;2023-01-04T10:19:22;100224.50;;;7.47;91.08
68859;BME280;55864;49.238;8.092;2023-01-04T10:21:35;100218.03;;;7.52;90.84
68859;BME280;55864;49.238;8.092;2023-01-04T10:23:49;100221.91;;;7.47;91.12
68859;BME280;55864;49.238;8.092;2023-01-04T10:26:00;100213.00;;;7.62;91.76
68859;BME280;55864;49.238;8.092;2023-01-04T10:28:12;100221.69;;;7.63;90.88
68859;BME280;55864;49.238;8.092;2023-01-04T10:30:22;100211.88;;;7.66;90.74
68859;BME280;55864;49.238;8.092;2023-01-04T10:32:32;100208.63;;;7.63;91.13
68859;BME280;55864;49.238;8.092;2023-01-04T10:34:39;100220.44;;;7.68;90.80
68859;BME280;55864;49.238;8.092;2023-01-04T10:36:43;100215.50;;;7.76;90.59
68859;BME280;55864;49.238;8.092;2023-01-04T10:38:44;100214.06;;;7.72;90.25
68859;BME280;55864;49.238;8.092;2023-01-04T10:40:46;100198.75;;;7.79;90.95
68859;BME280;55864;49.238;8.092;2023-01-04T10:42:54;100184.97;;;7.77;90.74
68859;BME280;55864;49.238;8.092;2023-01-04T10:45:06;100181.81;;;7.84;90.55
68859;BME280;55864;49.238;8.092;2023-01-04T10:47:14;100181.81;;;7.84;91.31
68859;BME280;55864;49.238;8.092;2023-01-04T10:49:24;100168.00;;;7.82;91.53
68859;BME280;55864;49.238;8.092;2023-01-04T10:51:32;100170.91;;;7.90;90.83
68859;BME280;55864;49.238;8.092;2023-01-04T10:53:38;100179.56;;;8.03;90.42
68859;BME280;55864;49.238;8.092;2023-01-04T10:55:43;100175.91;;;8.06;90.08